createdAt,value
2019-02-18T00:00:05.651Z,85.89
2019-02-18T00:01:05.659Z,86.51
2019-02-18T00:02:05.626Z,86.61
2019-02-18T00:03:05.623Z,86.72
2019-02-18T00:04:05.611Z,86.97
2019-02-18T00:05:05.599Z,86.76
2019-02-18T00:06:05.620Z,86.76
2019-02-18T00:07:14.114Z,86.97
2019-02-18T00:08:06.568Z,87.32
2019-02-18T00:09:05.560Z,87.39
2019-02-18T00:10:05.538Z,88.37
2019-02-18T00:11:05.580Z,88.12
2019-02-18T00:12:05.518Z,87.81
2019-02-18T00:13:05.514Z,88.29
2019-02-18T00:14:05.503Z,88.14
2019-02-18T00:15:05.516Z,86.79
2019-02-18T00:16:05.475Z,86.58
2019-02-18T00:17:05.481Z,85.64
2019-02-18T00:18:05.457Z,85.53
2019-02-18T00:19:05.448Z,85.43
2019-02-18T00:20:05.438Z,85.05
2019-02-18T00:21:05.425Z,85.74
2019-02-18T00:22:05.429Z,85.78
2019-02-18T00:23:05.405Z,86.30
2019-02-18T00:24:05.390Z,86.13
2019-02-18T00:25:05.385Z,86.76
2019-02-18T00:26:05.374Z,86.45
2019-02-18T00:27:05.386Z,86.66
2019-02-18T00:28:05.365Z,86.45
2019-02-18T00:29:05.335Z,86.76
2019-02-18T00:30:05.330Z,87.22
2019-02-18T00:31:05.320Z,87.32
2019-02-18T00:32:05.309Z,87.95
2019-02-18T00:33:05.309Z,88.16
2019-02-18T00:34:05.285Z,88.26
2019-02-18T00:35:05.277Z,89.10
2019-02-18T00:36:05.273Z,89.20
2019-02-18T00:37:05.249Z,89.41
2019-02-18T00:38:05.295Z,89.20
2019-02-18T00:39:05.233Z,88.78
2019-02-18T00:40:05.220Z,88.16
2019-02-18T00:41:05.220Z,87.60
2019-02-18T00:42:05.203Z,88.43
2019-02-18T00:43:05.198Z,88.16
2019-02-18T00:44:05.188Z,87.53
2019-02-18T00:45:05.182Z,88.47
2019-02-18T00:46:05.160Z,88.22
2019-02-18T00:47:05.151Z,88.22
2019-02-18T00:48:05.138Z,88.47
2019-02-18T00:49:05.167Z,87.43
2019-02-18T00:50:05.117Z,88.47
2019-02-18T00:51:05.130Z,88.26
2019-02-18T00:52:05.095Z,87.84
2019-02-18T00:53:05.156Z,87.81
2019-02-18T00:54:05.067Z,88.16
2019-02-18T00:55:05.070Z,88.37
2019-02-18T00:56:05.052Z,88.26
2019-02-18T00:57:05.045Z,87.95
2019-02-18T00:58:05.033Z,88.26
2019-02-18T00:59:05.054Z,87.53
2019-02-18T01:00:05.005Z,87.43
2019-02-18T01:01:04.993Z,88.47
2019-02-18T01:02:04.990Z,88.26
2019-02-18T01:03:04.973Z,87.84
2019-02-18T01:04:04.986Z,87.78
2019-02-18T01:05:04.970Z,87.99
2019-02-18T01:06:04.949Z,88.37
2019-02-18T01:07:04.934Z,88.16
2019-02-18T01:08:04.926Z,89.62
2019-02-18T01:09:04.915Z,88.78
2019-02-18T01:10:04.902Z,88.57
2019-02-18T01:11:04.903Z,87.84
2019-02-18T01:12:04.880Z,88.37
2019-02-18T01:13:04.866Z,87.84
2019-02-18T01:14:04.876Z,88.16
2019-02-18T01:15:04.847Z,88.16
2019-02-18T01:16:04.850Z,88.20
2019-02-18T01:17:04.822Z,87.99
2019-02-18T01:18:04.824Z,87.99
2019-02-18T01:19:04.800Z,88.30
2019-02-18T01:20:04.791Z,88.09
2019-02-18T01:21:04.808Z,88.13
2019-02-18T01:22:04.784Z,88.55
2019-02-18T01:23:04.762Z,89.34
2019-02-18T01:24:04.751Z,89.14
2019-02-18T01:25:04.735Z,89.07
2019-02-18T01:26:04.734Z,89.49
2019-02-18T01:27:04.752Z,90.01
2019-02-18T01:28:04.702Z,90.22
2019-02-18T01:29:04.695Z,90.91
2019-02-18T01:30:04.685Z,91.06
2019-02-18T01:31:04.671Z,90.70
2019-02-18T01:32:04.690Z,90.50
2019-02-18T01:33:04.649Z,89.97
2019-02-18T01:34:04.649Z,89.97
2019-02-18T01:35:04.627Z,89.34
2019-02-18T01:36:04.624Z,88.93
2019-02-18T01:37:04.634Z,89.24
2019-02-18T01:38:04.612Z,88.87
2019-02-18T01:39:04.587Z,88.51
2019-02-18T01:40:04.579Z,88.65
2019-02-18T01:41:04.587Z,88.97
2019-02-18T01:42:04.554Z,89.18
2019-02-18T01:43:04.579Z,89.95
2019-02-18T01:44:04.537Z,90.12
2019-02-18T01:45:04.527Z,90.47
2019-02-18T01:46:04.520Z,90.53
2019-02-18T01:47:04.506Z,90.22
2019-02-18T01:48:04.494Z,90.43
2019-02-18T01:49:04.493Z,90.22
2019-02-18T01:50:04.487Z,90.33
2019-02-18T01:51:04.463Z,90.16
2019-02-18T01:52:04.451Z,89.95
2019-02-18T01:53:04.445Z,89.95
2019-02-18T01:54:04.433Z,90.06
2019-02-18T01:55:04.419Z,90.20
2019-02-18T01:56:04.405Z,89.99
2019-02-18T01:57:04.398Z,90.16
2019-02-18T01:58:04.413Z,90.89
2019-02-18T01:59:04.377Z,90.89
2019-02-18T02:00:04.366Z,90.89
2019-02-18T02:01:04.357Z,91.66
2019-02-18T02:02:04.344Z,91.14
2019-02-18T02:03:04.338Z,90.62
2019-02-18T02:04:04.331Z,90.72
2019-02-18T02:05:04.318Z,90.83
2019-02-18T02:06:04.297Z,91.46
2019-02-18T02:07:04.287Z,91.35
2019-02-18T02:08:04.274Z,91.35
2019-02-18T02:09:04.267Z,91.77
2019-02-18T02:10:04.287Z,91.66
2019-02-18T02:11:04.246Z,92.29
2019-02-18T02:12:04.231Z,92.71
2019-02-18T02:13:04.244Z,92.35
2019-02-18T02:14:04.216Z,91.66
2019-02-18T02:15:04.198Z,91.31
2019-02-18T02:16:04.230Z,91.46
2019-02-18T02:17:04.176Z,91.25
2019-02-18T02:18:04.165Z,90.93
2019-02-18T02:19:04.164Z,91.03
2019-02-18T02:20:04.149Z,91.35
2019-02-18T02:21:04.133Z,91.71
2019-02-18T02:22:04.131Z,91.50
2019-02-18T02:23:04.112Z,91.56
2019-02-18T02:24:04.108Z,91.66
2019-02-18T02:25:04.099Z,91.71
2019-02-18T02:26:04.101Z,91.77
2019-02-18T02:27:04.079Z,91.35
2019-02-18T02:28:04.063Z,91.87
2019-02-18T02:29:04.052Z,91.87
2019-02-18T02:30:04.051Z,91.87
2019-02-18T02:31:04.027Z,91.77
2019-02-18T02:32:04.029Z,91.71
2019-02-18T02:33:04.010Z,91.28
2019-02-18T02:34:03.994Z,91.60
2019-02-18T02:35:03.984Z,91.81
2019-02-18T02:36:03.994Z,91.71
2019-02-18T02:37:03.978Z,91.71
2019-02-18T02:38:07.829Z,91.60
2019-02-18T02:39:03.944Z,91.91
2019-02-18T02:40:03.939Z,91.81
2019-02-18T02:41:03.923Z,91.91
2019-02-18T02:42:03.941Z,92.33
2019-02-18T02:43:03.905Z,91.71
2019-02-18T02:44:03.892Z,92.13
2019-02-18T02:45:03.879Z,92.44
2019-02-18T02:46:03.864Z,92.02
2019-02-18T02:47:03.858Z,92.58
2019-02-18T02:48:03.894Z,92.48
2019-02-18T02:49:03.877Z,93.48
2019-02-18T02:50:03.824Z,92.96
2019-02-18T02:51:03.820Z,93.59
2019-02-18T02:52:03.841Z,93.27
2019-02-18T02:53:03.794Z,93.33
2019-02-18T02:54:03.790Z,93.54
2019-02-18T02:55:03.773Z,93.54
2019-02-18T02:56:03.761Z,92.92
2019-02-18T02:57:03.744Z,92.82
2019-02-18T02:58:03.739Z,92.29
2019-02-18T02:59:03.743Z,91.87
2019-02-18T03:00:03.718Z,91.71
2019-02-18T03:01:03.711Z,91.50
2019-02-18T03:02:03.699Z,90.97
2019-02-18T03:03:03.683Z,91.81
2019-02-18T03:04:03.680Z,90.91
2019-02-18T03:05:03.668Z,90.91
2019-02-18T03:06:03.662Z,90.91
2019-02-18T03:07:03.648Z,91.02
2019-02-18T03:08:03.631Z,91.85
2019-02-18T03:09:03.631Z,91.64
2019-02-18T03:10:03.611Z,91.96
2019-02-18T03:11:03.595Z,92.48
2019-02-18T03:12:03.612Z,92.48
2019-02-18T03:13:03.590Z,91.85
2019-02-18T03:14:03.578Z,91.75
2019-02-18T03:15:03.551Z,91.85
2019-02-18T03:16:03.551Z,91.58
2019-02-18T03:17:03.536Z,91.69
2019-02-18T03:18:03.524Z,91.58
2019-02-18T03:19:03.568Z,91.33
2019-02-18T03:20:03.498Z,92.52
2019-02-18T03:21:03.487Z,92.21
2019-02-18T03:22:03.482Z,92.00
2019-02-18T03:23:03.470Z,91.79
2019-02-18T03:24:03.459Z,91.83
2019-02-18T03:25:03.513Z,91.31
2019-02-18T03:26:03.440Z,92.08
2019-02-18T03:27:03.433Z,91.35
2019-02-18T03:28:03.417Z,91.98
2019-02-18T03:29:03.406Z,92.19
2019-02-18T03:30:03.401Z,92.61
2019-02-18T03:31:03.405Z,92.82
2019-02-18T03:32:03.368Z,93.13
2019-02-18T03:33:03.369Z,93.51
2019-02-18T03:34:03.353Z,93.71
2019-02-18T03:35:03.367Z,94.03
2019-02-18T03:36:03.355Z,94.76
2019-02-18T03:37:03.315Z,94.76
2019-02-18T03:38:03.314Z,93.93
2019-02-18T03:39:03.303Z,93.15
2019-02-18T03:40:03.294Z,93.36
2019-02-18T03:41:03.695Z,93.15
2019-02-18T03:42:03.270Z,93.82
2019-02-18T03:43:03.253Z,93.61
2019-02-18T03:44:03.244Z,92.88
2019-02-18T03:45:03.234Z,93.08
2019-02-18T03:46:03.225Z,92.98
2019-02-18T03:47:03.215Z,93.40
2019-02-18T03:48:03.224Z,92.77
2019-02-18T03:49:03.194Z,92.92
2019-02-18T03:50:03.175Z,93.61
2019-02-18T03:51:03.177Z,93.51
2019-02-18T03:52:03.160Z,93.82
2019-02-18T03:53:03.143Z,93.51
2019-02-18T03:54:03.139Z,93.40
2019-02-18T03:55:03.126Z,93.57
2019-02-18T03:56:03.124Z,93.67
2019-02-18T03:57:03.118Z,92.94
2019-02-18T03:58:03.089Z,92.67
2019-02-18T03:59:03.081Z,92.35
2019-02-18T04:00:03.077Z,92.40
2019-02-18T04:01:03.057Z,92.77
2019-02-18T04:02:03.052Z,92.88
2019-02-18T04:03:03.044Z,92.77
2019-02-18T04:04:03.036Z,92.98
2019-02-18T04:05:03.024Z,92.25
2019-02-18T04:06:03.002Z,91.87
2019-02-18T04:07:03.033Z,92.50
2019-02-18T04:08:02.989Z,92.50
2019-02-18T04:09:02.997Z,92.82
2019-02-18T04:10:02.962Z,92.71
2019-02-18T04:11:02.972Z,93.02
2019-02-18T04:12:02.949Z,92.82
2019-02-18T04:13:02.953Z,92.76
2019-02-18T04:14:02.924Z,92.86
2019-02-18T04:15:02.920Z,92.71
2019-02-18T04:16:02.910Z,92.82
2019-02-18T04:17:02.893Z,93.17
2019-02-18T04:18:02.888Z,92.96
2019-02-18T04:19:02.882Z,93.27
2019-02-18T04:20:02.857Z,93.24
2019-02-18T04:21:02.844Z,92.96
2019-02-18T04:22:02.842Z,93.70
2019-02-18T04:23:02.833Z,92.44
2019-02-18T04:24:02.866Z,93.49
2019-02-18T04:25:02.804Z,93.07
2019-02-18T04:26:02.792Z,92.90
2019-02-18T04:27:02.777Z,92.58
2019-02-18T04:28:02.785Z,92.27
2019-02-18T04:29:02.756Z,92.38
2019-02-18T04:30:02.755Z,92.10
2019-02-18T04:31:02.740Z,92.35
2019-02-18T04:32:02.728Z,92.25
2019-02-18T04:33:02.711Z,92.57
2019-02-18T04:34:02.726Z,92.88
2019-02-18T04:35:02.701Z,92.99
2019-02-18T04:36:02.684Z,93.30
2019-02-18T04:37:02.674Z,93.09
2019-02-18T04:38:02.659Z,93.72
2019-02-18T04:39:02.668Z,94.04
2019-02-18T04:40:02.640Z,94.04
2019-02-18T04:41:02.660Z,92.99
2019-02-18T04:42:02.622Z,93.19
2019-02-18T04:43:02.605Z,94.08
2019-02-18T04:44:02.600Z,93.72
2019-02-18T04:45:02.583Z,94.14
2019-02-18T04:46:02.577Z,94.45
2019-02-18T04:47:02.586Z,94.67
2019-02-18T04:48:02.567Z,94.51
2019-02-18T04:49:02.547Z,94.35
2019-02-18T04:50:02.535Z,94.87
2019-02-18T04:51:02.525Z,94.56
2019-02-18T04:52:02.536Z,94.77
2019-02-18T04:53:02.497Z,94.93
2019-02-18T04:54:02.491Z,94.77
2019-02-18T04:55:02.481Z,94.77
2019-02-18T04:56:02.465Z,94.45
2019-02-18T04:57:02.459Z,94.62
2019-02-18T04:58:02.454Z,94.73
2019-02-18T04:59:02.435Z,94.77
2019-02-18T05:00:02.423Z,94.45
2019-02-18T05:01:03.063Z,94.20
2019-02-18T05:02:02.406Z,93.36
2019-02-18T05:03:02.404Z,94.04
2019-02-18T05:04:02.382Z,93.72
2019-02-18T05:05:02.367Z,94.08
2019-02-18T05:06:02.366Z,93.76
2019-02-18T05:07:02.345Z,94.18
2019-02-18T05:08:02.382Z,94.18
2019-02-18T05:09:05.202Z,94.18
2019-02-18T05:10:02.352Z,94.18
2019-02-18T05:11:02.303Z,94.23
2019-02-18T05:12:02.291Z,94.81
2019-02-18T05:13:02.288Z,95.02
2019-02-18T05:14:02.285Z,94.92
2019-02-18T05:15:02.268Z,94.75
2019-02-18T05:16:02.253Z,94.60
2019-02-18T05:17:02.247Z,94.23
2019-02-18T05:18:02.232Z,94.60
2019-02-18T05:19:02.260Z,95.13
2019-02-18T05:20:02.235Z,94.49
2019-02-18T05:21:02.204Z,94.12
2019-02-18T05:22:02.204Z,94.01
2019-02-18T05:23:02.176Z,94.33
2019-02-18T05:24:02.171Z,94.33
2019-02-18T05:25:02.195Z,95.06
2019-02-18T05:26:02.140Z,94.54
2019-02-18T05:27:02.137Z,94.54
2019-02-18T05:28:02.132Z,94.65
2019-02-18T05:29:02.199Z,94.54
2019-02-18T05:30:02.098Z,94.85
2019-02-18T05:31:02.098Z,94.65
2019-02-18T05:32:02.076Z,94.65
2019-02-18T05:33:02.068Z,94.79
2019-02-18T05:34:02.060Z,94.58
2019-02-18T05:35:02.073Z,94.58
2019-02-18T05:36:02.050Z,94.90
2019-02-18T05:37:02.022Z,94.90
2019-02-18T05:38:02.012Z,94.85
2019-02-18T05:39:02.007Z,94.65
2019-02-18T05:40:02.003Z,95.06
2019-02-18T05:41:01.998Z,94.81
2019-02-18T05:42:01.970Z,95.54
2019-02-18T05:43:01.959Z,95.19
2019-02-18T05:44:01.947Z,95.19
2019-02-18T05:45:01.940Z,95.19
2019-02-18T05:46:01.954Z,95.50
2019-02-18T05:47:01.916Z,95.40
2019-02-18T05:48:01.906Z,95.29
2019-02-18T05:49:01.894Z,94.71
2019-02-18T05:50:01.884Z,94.60
2019-02-18T05:51:01.897Z,94.81
2019-02-18T05:52:01.865Z,94.92
2019-02-18T05:53:01.867Z,94.60
2019-02-18T05:54:01.841Z,94.71
2019-02-18T05:55:01.843Z,95.34
2019-02-18T05:56:01.848Z,95.59
2019-02-18T05:57:01.816Z,95.54
2019-02-18T05:58:01.805Z,95.13
2019-02-18T05:59:01.791Z,94.75
2019-02-18T06:00:01.787Z,94.96
2019-02-18T06:01:01.781Z,94.75
2019-02-18T06:02:01.763Z,94.75
2019-02-18T06:03:01.745Z,94.75
2019-02-18T06:04:01.743Z,94.96
2019-02-18T06:05:01.733Z,94.85
2019-02-18T06:06:01.712Z,94.96
2019-02-18T06:07:01.709Z,94.79
2019-02-18T06:08:01.699Z,94.65
2019-02-18T06:09:01.682Z,95.00
2019-02-18T06:10:01.675Z,94.69
2019-02-18T06:11:01.664Z,94.90
2019-02-18T06:12:01.657Z,95.59
2019-02-18T06:13:01.646Z,95.48
2019-02-18T06:14:01.635Z,95.38
2019-02-18T06:15:01.619Z,95.70
2019-02-18T06:16:01.611Z,95.28
2019-02-18T06:17:02.846Z,95.17
2019-02-18T06:18:01.605Z,95.38
2019-02-18T06:19:01.610Z,95.48
2019-02-18T06:20:01.568Z,95.59
2019-02-18T06:21:01.553Z,95.80
2019-02-18T06:22:01.546Z,95.48
2019-02-18T06:23:01.543Z,95.70
2019-02-18T06:24:01.531Z,95.38
2019-02-18T06:25:01.534Z,95.65
2019-02-18T06:26:01.501Z,95.86
2019-02-18T06:27:01.484Z,95.61
2019-02-18T06:28:01.488Z,96.24
2019-02-18T06:29:01.470Z,96.13
2019-02-18T06:30:01.459Z,95.72
2019-02-18T06:31:01.442Z,95.61
2019-02-18T06:32:01.476Z,95.15
2019-02-18T06:33:01.437Z,95.56
2019-02-18T06:34:01.410Z,95.62
2019-02-18T06:35:01.400Z,95.58
2019-02-18T06:36:01.532Z,95.43
2019-02-18T06:37:01.379Z,95.75
2019-02-18T06:38:01.401Z,94.97
2019-02-18T06:39:01.361Z,94.30
2019-02-18T06:40:01.364Z,93.63
2019-02-18T06:41:01.343Z,93.63
2019-02-18T06:42:01.322Z,92.90
2019-02-18T06:43:01.314Z,92.33
2019-02-18T06:44:01.344Z,92.44
2019-02-18T06:45:01.298Z,91.46
2019-02-18T06:46:01.285Z,90.52
2019-02-18T06:47:01.275Z,89.99
2019-02-18T06:48:01.263Z,90.31
2019-02-18T06:49:01.343Z,90.58
2019-02-18T06:50:01.268Z,90.33
2019-02-18T06:51:01.238Z,89.91
2019-02-18T06:52:01.220Z,90.18
2019-02-18T06:53:01.204Z,89.31
2019-02-18T06:54:01.195Z,89.20
2019-02-18T06:55:01.182Z,88.64
2019-02-18T06:56:01.184Z,87.87
2019-02-18T06:57:01.166Z,87.73
2019-02-18T06:58:01.155Z,87.52
2019-02-18T06:59:01.145Z,87.48
2019-02-18T07:00:01.136Z,86.91
2019-02-18T07:01:01.143Z,86.88
2019-02-18T07:02:01.114Z,86.42
2019-02-18T07:03:01.100Z,85.49
2019-02-18T07:04:01.096Z,84.86
2019-02-18T07:05:01.079Z,84.51
2019-02-18T07:06:01.073Z,83.95
2019-02-18T07:07:01.068Z,82.35
2019-02-18T07:08:01.058Z,81.42
2019-02-18T07:09:01.037Z,80.59
2019-02-18T07:10:01.030Z,79.93
2019-02-18T07:11:01.027Z,78.23
2019-02-18T07:12:01.006Z,77.61
2019-02-18T07:13:01.041Z,77.78
2019-02-18T07:14:00.983Z,76.95
2019-02-18T07:15:00.972Z,76.33
2019-02-18T07:16:00.961Z,75.78
2019-02-18T07:17:00.948Z,75.26
2019-02-18T07:18:00.941Z,74.71
2019-02-18T07:19:00.937Z,73.67
2019-02-18T07:20:00.934Z,73.46
2019-02-18T07:21:00.905Z,73.36
2019-02-18T07:22:00.891Z,72.63
2019-02-18T07:23:00.887Z,72.29
2019-02-18T07:24:00.890Z,72.11
2019-02-18T07:25:00.865Z,72.22
2019-02-18T07:26:00.855Z,71.67
2019-02-18T07:27:00.849Z,71.98
2019-02-18T07:28:00.853Z,71.77
2019-02-18T07:29:00.826Z,71.56
2019-02-18T07:30:00.826Z,70.42
2019-02-18T07:31:00.801Z,70.32
2019-02-18T07:32:00.782Z,70.18
2019-02-18T07:33:00.773Z,70.60
2019-02-18T07:34:00.806Z,69.46
2019-02-18T07:35:00.761Z,69.74
2019-02-18T07:36:01.195Z,69.53
2019-02-18T07:37:00.730Z,69.64
2019-02-18T07:38:00.726Z,69.01
2019-02-18T07:39:00.707Z,68.91
2019-02-18T07:40:01.980Z,69.43
2019-02-18T07:41:00.693Z,68.88
2019-02-18T07:42:00.682Z,68.49
2019-02-18T07:43:00.685Z,68.57
2019-02-18T07:44:00.659Z,69.09
2019-02-18T07:45:00.664Z,68.77
2019-02-18T07:46:00.671Z,68.26
2019-02-18T07:47:00.624Z,68.02
2019-02-18T07:48:00.616Z,68.08
2019-02-18T07:49:00.602Z,68.40
2019-02-18T07:50:00.595Z,68.63
2019-02-18T07:51:00.575Z,67.60
2019-02-18T07:52:00.578Z,67.15
2019-02-18T07:53:00.581Z,67.15
2019-02-18T07:54:00.543Z,67.46
2019-02-18T07:55:00.534Z,67.49
2019-02-18T07:56:00.574Z,68.70
2019-02-18T07:57:00.511Z,68.60
2019-02-18T07:58:00.505Z,66.74
2019-02-18T07:59:00.490Z,67.05
2019-02-18T08:00:00.486Z,67.67
2019-02-18T08:01:00.469Z,67.91
2019-02-18T08:02:00.475Z,68.84
2019-02-18T08:03:00.453Z,68.56
2019-02-18T08:04:00.440Z,68.35
2019-02-18T08:05:02.271Z,68.25
2019-02-18T08:06:00.447Z,69.39
2019-02-18T08:07:00.408Z,69.01
2019-02-18T08:08:00.402Z,70.31
2019-02-18T08:09:00.382Z,70.62
2019-02-18T08:10:00.443Z,70.18
2019-02-18T08:11:00.367Z,71.01
2019-02-18T08:12:00.360Z,69.84
2019-02-18T08:13:00.344Z,69.60
2019-02-18T08:14:00.412Z,68.84
2019-02-18T08:15:00.315Z,68.08
2019-02-18T08:16:00.312Z,68.15
2019-02-18T08:17:00.297Z,66.81
2019-02-18T08:18:00.291Z,66.91
2019-02-18T08:19:00.280Z,66.91
2019-02-18T08:20:00.303Z,66.29
2019-02-18T08:21:00.251Z,66.16
2019-02-18T08:22:00.246Z,66.67
2019-02-18T08:23:00.240Z,66.06
2019-02-18T08:24:00.493Z,65.67
2019-02-18T08:25:00.302Z,67.08
2019-02-18T08:26:00.220Z,68.77
2019-02-18T08:27:00.220Z,69.73
2019-02-18T08:28:00.176Z,69.94
2019-02-18T08:29:00.193Z,70.97
2019-02-18T08:30:00.339Z,70.83
2019-02-18T08:31:00.150Z,71.22
2019-02-18T08:32:00.142Z,71.56
2019-02-18T08:33:00.131Z,71.97
2019-02-18T08:34:00.126Z,72.28
2019-02-18T08:35:00.280Z,72.18
2019-02-18T08:36:00.403Z,72.77
2019-02-18T08:37:00.083Z,72.05
2019-02-18T08:38:00.072Z,72.05
2019-02-18T08:39:00.115Z,72.15
2019-02-18T08:40:00.216Z,71.70
2019-02-18T08:41:00.040Z,72.01
2019-02-18T08:42:00.045Z,71.59
2019-02-18T08:43:00.018Z,70.36
2019-02-18T08:44:00.009Z,70.46
2019-02-18T08:45:00.004Z,70.94
2019-02-18T08:45:59.996Z,70.84
2019-02-18T08:46:59.979Z,70.53
2019-02-18T08:47:59.958Z,70.08
2019-02-18T08:48:59.952Z,70.39
2019-02-18T08:49:59.947Z,69.22
2019-02-18T08:50:59.955Z,69.71
2019-02-18T08:51:59.983Z,69.16
2019-02-18T08:52:59.906Z,69.37
2019-02-18T08:53:59.897Z,67.61
2019-02-18T08:54:59.897Z,66.82
2019-02-18T08:55:59.872Z,66.27
2019-02-18T08:56:59.869Z,65.31
2019-02-18T08:57:59.859Z,64.25
2019-02-18T08:58:59.841Z,63.92
2019-02-18T08:59:59.835Z,63.71
2019-02-18T09:01:02.451Z,63.17
2019-02-18T09:01:59.815Z,61.72
2019-02-18T09:02:59.793Z,61.90
2019-02-18T09:03:59.782Z,61.56
2019-02-18T09:04:59.793Z,61.25
2019-02-18T09:05:59.759Z,60.63
2019-02-18T09:06:59.800Z,60.91
2019-02-18T09:07:59.750Z,60.27
2019-02-18T09:08:59.729Z,59.45
2019-02-18T09:09:59.718Z,59.34
2019-02-18T09:10:59.711Z,59.86
2019-02-18T09:11:59.699Z,58.83
2019-02-18T09:12:59.725Z,58.62
2019-02-18T09:13:59.671Z,58.59
2019-02-18T09:14:59.664Z,58.50
2019-02-18T09:16:00.579Z,57.75
2019-02-18T09:16:59.640Z,57.62
2019-02-18T09:17:59.657Z,57.10
2019-02-18T09:18:59.656Z,57.13
2019-02-18T09:19:59.612Z,57.54
2019-02-18T09:20:59.604Z,56.72
2019-02-18T09:21:59.591Z,56.90
2019-02-18T09:22:59.572Z,56.79
2019-02-18T09:23:59.561Z,56.77
2019-02-18T09:24:59.560Z,56.36
2019-02-18T09:25:59.598Z,56.13
2019-02-18T09:26:59.528Z,56.13
2019-02-18T09:27:59.543Z,56.23
2019-02-18T09:28:59.524Z,56.13
2019-02-18T09:29:59.503Z,55.92
2019-02-18T09:30:59.487Z,56.13
2019-02-18T09:31:59.473Z,55.00
2019-02-18T09:32:59.470Z,56.13
2019-02-18T09:33:59.457Z,56.02
2019-02-18T09:35:02.038Z,56.00
2019-02-18T09:35:59.439Z,56.10
2019-02-18T09:36:59.420Z,55.08
2019-02-18T09:37:59.410Z,54.44
2019-02-18T09:38:59.399Z,54.95
2019-02-18T09:39:59.387Z,54.95
2019-02-18T09:40:59.395Z,53.90
2019-02-18T09:41:59.378Z,54.72
2019-02-18T09:42:59.358Z,52.87
2019-02-18T09:43:59.343Z,53.18
2019-02-18T09:44:59.338Z,52.87
2019-02-18T09:45:59.336Z,52.69
2019-02-18T09:46:59.312Z,53.82
2019-02-18T09:47:59.299Z,52.69
2019-02-18T09:48:59.288Z,53.28
2019-02-18T09:49:59.282Z,53.18
2019-02-18T09:51:00.085Z,54.00
2019-02-18T09:51:59.267Z,53.26
2019-02-18T09:52:59.254Z,52.44
2019-02-18T09:53:59.256Z,52.85
2019-02-18T09:54:59.224Z,52.83
2019-02-18T09:55:59.248Z,52.31
2019-02-18T09:56:59.229Z,52.83
2019-02-18T09:57:59.194Z,52.11
2019-02-18T09:58:59.187Z,52.00
2019-02-18T09:59:59.174Z,51.08
2019-02-18T10:00:59.160Z,51.37
2019-02-18T10:01:59.156Z,51.06
2019-02-18T10:02:59.151Z,50.75
2019-02-18T10:03:59.148Z,50.96
2019-02-18T10:04:59.119Z,50.24
2019-02-18T10:05:59.103Z,49.83
2019-02-18T10:06:59.091Z,50.75
2019-02-18T10:07:59.128Z,49.71
2019-02-18T10:08:59.083Z,49.91
2019-02-18T10:09:59.061Z,50.22
2019-02-18T10:10:59.056Z,51.04
2019-02-18T10:11:59.040Z,48.58
2019-02-18T10:12:59.772Z,50.75
2019-02-18T10:13:59.015Z,50.32
2019-02-18T10:14:59.008Z,50.50
2019-02-18T10:15:59.007Z,50.71
2019-02-18T10:16:58.995Z,50.68
2019-02-18T10:17:58.971Z,48.84
2019-02-18T10:18:58.964Z,50.27
2019-02-18T10:19:58.954Z,49.84
2019-02-18T10:20:58.950Z,49.74
2019-02-18T10:21:58.940Z,49.33
2019-02-18T10:22:58.919Z,48.41
2019-02-18T10:23:58.909Z,48.54
2019-02-18T10:24:58.894Z,48.13
2019-02-18T10:25:58.957Z,49.05
2019-02-18T10:26:58.874Z,48.61
2019-02-18T10:27:58.866Z,49.13
2019-02-18T10:28:58.855Z,48.49
2019-02-18T10:29:58.856Z,48.10
2019-02-18T10:30:58.831Z,48.51
2019-02-18T10:31:58.833Z,48.59
2019-02-18T10:32:58.811Z,48.18
2019-02-18T10:33:58.800Z,48.61
2019-02-18T10:34:58.791Z,48.72
2019-02-18T10:35:58.803Z,48.10
2019-02-18T10:36:58.763Z,48.72
2019-02-18T10:37:58.757Z,48.82
2019-02-18T10:38:58.747Z,49.63
2019-02-18T10:39:58.755Z,49.13
2019-02-18T10:41:06.630Z,48.69
2019-02-18T10:41:59.756Z,48.80
2019-02-18T10:42:58.703Z,49.10
2019-02-18T10:43:58.690Z,49.69
2019-02-18T10:44:58.682Z,49.29
2019-02-18T10:45:58.667Z,47.86
2019-02-18T10:46:58.656Z,48.24
2019-02-18T10:47:58.660Z,48.75
2019-02-18T10:48:58.639Z,47.94
2019-02-18T10:49:58.632Z,47.12
2019-02-18T10:50:58.620Z,47.12
2019-02-18T10:51:58.607Z,47.02
2019-02-18T10:52:58.628Z,47.53
2019-02-18T10:53:58.656Z,47.94
2019-02-18T10:54:58.567Z,47.73
2019-02-18T10:55:58.557Z,47.09
2019-02-18T10:56:58.545Z,47.71
2019-02-18T10:57:58.569Z,46.89
2019-02-18T10:58:58.528Z,46.77
2019-02-18T10:59:59.290Z,45.65
2019-02-18T11:00:58.503Z,45.95
2019-02-18T11:01:58.492Z,45.65
2019-02-18T11:02:58.514Z,46.08
2019-02-18T11:03:58.485Z,46.67
2019-02-18T11:04:58.462Z,46.44
2019-02-18T11:05:58.456Z,45.12
2019-02-18T11:06:58.445Z,45.30
2019-02-18T11:07:58.431Z,45.07
2019-02-18T11:08:58.437Z,44.87
2019-02-18T11:09:58.404Z,43.14
2019-02-18T11:10:58.393Z,44.24
2019-02-18T11:11:58.382Z,43.53
2019-02-18T11:12:58.374Z,44.02
2019-02-18T11:13:58.367Z,42.59
2019-02-18T11:14:58.363Z,42.19
2019-02-18T11:15:58.361Z,41.68
2019-02-18T11:16:58.329Z,41.70
2019-02-18T11:17:58.317Z,41.80
2019-02-18T11:18:58.314Z,42.92
2019-02-18T11:19:58.299Z,42.63
2019-02-18T11:20:58.285Z,43.00
2019-02-18T11:21:58.277Z,41.86
2019-02-18T11:22:58.267Z,41.31
2019-02-18T11:23:58.285Z,40.40
2019-02-18T11:24:58.241Z,41.01
2019-02-18T11:25:58.234Z,40.00
2019-02-18T11:26:58.218Z,41.54
2019-02-18T11:27:58.208Z,42.07
2019-02-18T11:28:58.209Z,41.33
2019-02-18T11:29:58.218Z,41.62
2019-02-18T11:30:58.177Z,40.40
2019-02-18T11:31:58.163Z,40.83
2019-02-18T11:32:58.153Z,40.70
2019-02-18T11:33:58.141Z,39.06
2019-02-18T11:35:00.035Z,39.26
2019-02-18T11:35:58.135Z,39.55
2019-02-18T11:36:58.109Z,39.45
2019-02-18T11:37:58.098Z,39.49
2019-02-18T11:38:58.113Z,40.32
2019-02-18T11:39:58.084Z,40.91
2019-02-18T11:40:58.131Z,40.70
2019-02-18T11:41:58.054Z,40.81
2019-02-18T11:42:58.043Z,40.81
2019-02-18T11:43:58.036Z,40.30
2019-02-18T11:44:58.028Z,40.26
2019-02-18T11:45:58.009Z,40.18
2019-02-18T11:46:58.008Z,41.01
2019-02-18T11:47:57.994Z,40.48
2019-02-18T11:48:57.981Z,40.61
2019-02-18T11:49:57.966Z,40.61
2019-02-18T11:50:57.964Z,40.89
2019-02-18T11:52:00.057Z,39.69
2019-02-18T11:52:57.932Z,40.81
2019-02-18T11:53:57.927Z,40.61
2019-02-18T11:54:57.916Z,41.30
2019-02-18T11:55:57.901Z,40.59
2019-02-18T11:56:57.895Z,41.70
2019-02-18T11:57:57.919Z,41.09
2019-02-18T11:58:57.876Z,40.48
2019-02-18T11:59:57.860Z,42.29
2019-02-18T12:00:57.858Z,39.53
2019-02-18T12:01:57.871Z,39.11
2019-02-18T12:03:58.818Z,37.27
2019-02-18T12:04:57.800Z,38.42
2019-02-18T12:05:57.798Z,39.42
2019-02-18T12:06:57.786Z,38.68
2019-02-18T12:07:57.783Z,38.37
2019-02-18T12:08:57.762Z,37.52
2019-02-18T12:09:57.752Z,37.01
2019-02-18T12:10:57.735Z,36.99
2019-02-18T12:11:57.728Z,36.69
2019-02-18T12:12:57.730Z,36.49
2019-02-18T12:13:57.704Z,36.49
2019-02-18T12:14:57.761Z,36.69
2019-02-18T12:15:57.688Z,36.57
2019-02-18T12:16:57.679Z,35.77
2019-02-18T12:17:57.667Z,35.17
2019-02-18T12:18:57.678Z,34.89
2019-02-18T12:19:57.640Z,35.19
2019-02-18T12:20:57.635Z,35.70
2019-02-18T12:21:57.624Z,34.89
2019-02-18T12:22:57.612Z,34.52
2019-02-18T12:23:57.616Z,35.13
2019-02-18T12:24:57.605Z,34.31
2019-02-18T12:25:57.589Z,36.24
2019-02-18T12:26:57.574Z,36.14
2019-02-18T12:27:57.574Z,36.15
2019-02-18T12:28:57.549Z,37.67
2019-02-18T12:29:57.547Z,37.16
2019-02-18T12:30:57.527Z,37.16
2019-02-18T12:31:57.515Z,37.16
2019-02-18T12:32:57.499Z,37.16
2019-02-18T12:33:57.488Z,36.87
2019-02-18T12:34:57.501Z,37.27
2019-02-18T12:35:57.478Z,37.47
2019-02-18T12:36:57.461Z,37.59
2019-02-18T12:37:57.445Z,38.50
2019-02-18T12:38:57.439Z,38.91
2019-02-18T12:39:57.438Z,37.37
2019-02-18T12:40:57.415Z,38.46
2019-02-18T12:41:57.404Z,36.72
2019-02-18T12:42:57.394Z,37.21
2019-02-18T12:43:57.386Z,37.21
2019-02-18T12:44:57.377Z,36.71
2019-02-18T12:45:57.371Z,36.71
2019-02-18T12:46:57.354Z,37.52
2019-02-18T12:47:57.342Z,37.12
2019-02-18T12:48:57.336Z,37.48
2019-02-18T12:49:57.320Z,35.77
2019-02-18T12:50:57.315Z,36.39
2019-02-18T12:51:57.302Z,36.59
2019-02-18T12:52:57.396Z,37.30